createdAt,value
2023-02-28T00:00:37.029Z,4.6
2023-02-28T00:03:37.826Z,3.6
2023-02-28T00:06:25.440Z,2.7
2023-02-28T00:09:13.479Z,2
2023-02-28T00:12:00.921Z,1.4
2023-02-28T00:14:55.663Z,2.1
2023-02-28T00:17:43.468Z,4.2
2023-02-28T00:20:31.292Z,4.2
2023-02-28T00:23:18.819Z,3.3
2023-02-28T00:26:06.175Z,2.4
2023-02-28T00:28:53.687Z,1.7
2023-02-28T00:31:40.990Z,1.2
2023-02-28T00:34:28.285Z,2.5
2023-02-28T00:37:15.622Z,4.4
2023-02-28T00:40:03.263Z,4.4
2023-02-28T00:42:54.526Z,3.3
2023-02-28T00:45:42.038Z,2.4
2023-02-28T00:48:29.785Z,1.7
2023-02-28T00:51:17.305Z,1.1
2023-02-28T00:54:04.607Z,1.1
2023-02-28T00:56:51.924Z,3
2023-02-28T00:59:39.239Z,3.6
2023-02-28T01:02:26.756Z,2.8
2023-02-28T01:05:14.266Z,2
2023-02-28T01:08:01.783Z,1.4
2023-02-28T01:10:49.652Z,0.8
2023-02-28T01:13:37.069Z,1.4
2023-02-28T01:16:24.668Z,3.5
2023-02-28T01:19:13.131Z,4.1
2023-02-28T01:22:00.408Z,3.3
2023-02-28T01:24:49.092Z,2.4
2023-02-28T01:27:36.378Z,1.6
2023-02-28T01:30:25.018Z,0.9
2023-02-28T01:33:12.302Z,0.5
2023-02-28T01:35:59.566Z,2.1
2023-02-28T01:38:49.849Z,3.8
2023-02-28T01:41:37.592Z,3.4
2023-02-28T01:44:25.427Z,2.4
2023-02-28T01:47:46.945Z,1.4
2023-02-28T01:50:36.676Z,0.8
2023-02-28T01:53:28.514Z,1.2
2023-02-28T01:56:20.632Z,3.2
2023-02-28T01:59:13.204Z,3.6
2023-02-28T02:02:07.538Z,2.7
2023-02-28T02:04:55.860Z,1.7
2023-02-28T02:07:48.497Z,0.9
2023-02-28T02:10:40.318Z,0.3
2023-02-28T02:13:30.643Z,1.4
2023-02-28T02:16:29.147Z,3.3
2023-02-28T02:19:31.703Z,2.9
2023-02-28T02:22:50.755Z,1.8
2023-02-28T02:26:18.370Z,0.8
2023-02-28T02:29:27.889Z,0.1
2023-02-28T02:32:53.770Z,1
2023-02-28T02:35:57.301Z,3.2
2023-02-28T02:38:53.091Z,3.4
2023-02-28T02:41:48.133Z,2.3
2023-02-28T02:44:38.298Z,1.4
2023-02-28T02:47:30.619Z,0.7
2023-02-28T02:50:19.491Z,0.1
2023-02-28T02:53:12.352Z,1.1
2023-02-28T02:56:03.212Z,3.1
2023-02-28T02:58:53.415Z,3
2023-02-28T03:01:47.369Z,2
2023-02-28T03:04:39.271Z,1.1
2023-02-28T03:07:31.824Z,0.4
2023-02-28T03:10:19.329Z,-0.1
2023-02-28T03:13:18.517Z,1.6
2023-02-28T03:16:26.636Z,3.6
2023-02-28T03:19:21.707Z,3.1
2023-02-28T03:22:26.205Z,2
2023-02-28T03:25:35.003Z,1
2023-02-28T03:28:28.574Z,0.4
2023-02-28T03:31:22.819Z,1.2
2023-02-28T03:34:16.110Z,3.2
2023-02-28T03:37:10.258Z,2.9
2023-02-28T03:40:04.293Z,1.9
2023-02-28T03:42:58.687Z,1
2023-02-28T03:45:49.519Z,0.2
2023-02-28T03:48:39.717Z,0.5
2023-02-28T03:51:31.822Z,2.5
2023-02-28T03:54:20.059Z,2.9
2023-02-28T03:57:13.085Z,2
2023-02-28T04:00:10.757Z,1.1
2023-02-28T04:03:03.584Z,0.4
2023-02-28T04:05:51.775Z,0.8
2023-02-28T04:08:43.025Z,2.7
2023-02-28T04:11:36.972Z,3.4
2023-02-28T04:14:26.618Z,2.5
2023-02-28T04:17:13.950Z,1.5
2023-02-28T04:20:01.601Z,0.7
2023-02-28T04:22:54.975Z,0.8
2023-02-28T04:25:42.413Z,2.6
2023-02-28T04:28:29.788Z,3.5
2023-02-28T04:31:17.265Z,2.6
2023-02-28T04:34:04.526Z,1.6
2023-02-28T04:37:02.696Z,0.7
2023-02-28T04:39:59.441Z,1.4
2023-02-28T04:42:46.817Z,3.4
2023-02-28T04:45:34.119Z,3.6
2023-02-28T04:48:22.430Z,2.6
2023-02-28T04:51:10.951Z,1.6
2023-02-28T04:54:01.285Z,0.7
2023-02-28T04:56:48.636Z,0.9
2023-02-28T04:59:35.920Z,2.7
2023-02-28T05:02:23.300Z,2.9
2023-02-28T05:05:10.996Z,2
2023-02-28T05:08:03.620Z,1
2023-02-28T05:10:51.133Z,0.3
2023-02-28T05:13:38.630Z,0
2023-02-28T05:16:26.063Z,1.7
2023-02-28T05:19:13.680Z,2.8
2023-02-28T05:22:01.565Z,2
2023-02-28T05:24:48.989Z,1.1
2023-02-28T05:27:36.476Z,0.4
2023-02-28T05:30:24.069Z,0.2
2023-02-28T05:33:17.257Z,2
2023-02-28T05:36:04.625Z,3.2
2023-02-28T05:38:53.007Z,2.4
2023-02-28T05:41:40.454Z,1.4
2023-02-28T05:44:28.752Z,0.6
2023-02-28T05:47:16.463Z,1.6
2023-02-28T05:50:04.282Z,3.5
2023-02-28T05:52:55.346Z,3.5
2023-02-28T05:55:42.913Z,2.4
2023-02-28T05:58:30.227Z,1.4
2023-02-28T06:01:17.728Z,0.7
2023-02-28T06:04:19.209Z,2.1
2023-02-28T06:07:10.067Z,3.7
2023-02-28T06:09:58.930Z,3
2023-02-28T06:12:46.353Z,1.9
2023-02-28T06:15:33.738Z,1.1
2023-02-28T06:18:21.500Z,1.7
2023-02-28T06:21:09.062Z,3.6
2023-02-28T06:23:59.286Z,3.8
2023-02-28T06:26:47.219Z,2.8
2023-02-28T06:29:34.784Z,1.7
2023-02-28T06:32:25.444Z,0.8
2023-02-28T06:35:13.228Z,1.3
2023-02-28T06:38:00.626Z,3.3
2023-02-28T06:40:48.704Z,3.8
2023-02-28T06:43:39.968Z,2.9
2023-02-28T06:46:28.443Z,1.9
2023-02-28T06:49:15.714Z,2
2023-02-28T06:52:03.474Z,3.9
2023-02-28T06:54:51.321Z,4
2023-02-28T06:57:45.418Z,3
2023-02-28T07:00:32.777Z,2
2023-02-28T07:03:20.011Z,1.6
2023-02-28T07:06:07.413Z,3.1
2023-02-28T07:08:55.621Z,4.5
2023-02-28T07:11:43.220Z,4
2023-02-28T07:14:30.628Z,3
2023-02-28T07:17:18.008Z,2.1
2023-02-28T07:20:05.464Z,2.2
2023-02-28T07:22:54.591Z,3.9
2023-02-28T07:25:42.259Z,4.2
2023-02-28T07:28:31.140Z,3.4
2023-02-28T07:31:18.594Z,2.6
2023-02-28T07:34:06.135Z,1.9
2023-02-28T07:36:53.506Z,2.7
2023-02-28T07:39:41.367Z,4.5
2023-02-28T07:42:28.651Z,4.8
2023-02-28T07:45:16.028Z,4
2023-02-28T07:48:05.005Z,3.1
2023-02-28T07:50:52.322Z,2.5
2023-02-28T07:53:41.541Z,2.4
2023-02-28T07:56:29.387Z,4.2
2023-02-28T07:59:17.443Z,5.1
2023-02-28T08:02:04.889Z,4.6
2023-02-28T08:04:52.356Z,3.7
2023-02-28T08:07:39.781Z,3.1
2023-02-28T08:10:27.191Z,2.6
2023-02-28T08:13:14.487Z,2.4
2023-02-28T08:16:01.779Z,3.8
2023-02-28T08:18:49.367Z,5.5
2023-02-28T08:21:37.893Z,5.5
2023-02-28T08:24:25.476Z,4.7
2023-02-28T08:27:13.321Z,4
2023-02-28T08:30:00.684Z,3.5
2023-02-28T08:32:49.948Z,3.1
2023-02-28T08:35:37.498Z,2.9
2023-02-28T08:38:25.043Z,4.4
2023-02-28T08:41:12.763Z,6.3
2023-02-28T08:44:00.158Z,6.1
2023-02-28T08:46:47.696Z,5.5
2023-02-28T08:49:35.095Z,5.1
2023-02-28T08:52:23.211Z,4.7
2023-02-28T08:55:10.990Z,4.4
2023-02-28T08:57:59.087Z,4.1
2023-02-28T09:00:47.182Z,4
2023-02-28T09:03:34.672Z,3.9
2023-02-28T09:06:22.170Z,3.9
2023-02-28T09:09:12.162Z,5.7
2023-02-28T09:11:59.634Z,6.2
2023-02-28T09:14:47.704Z,5.7
2023-02-28T09:17:36.109Z,5.3
2023-02-28T09:20:23.638Z,5.1
2023-02-28T09:23:11.428Z,4.9
2023-02-28T09:25:59.994Z,4.8
2023-02-28T09:28:47.897Z,4.7
2023-02-28T09:31:35.968Z,4.6
2023-02-28T09:34:23.442Z,4.6
2023-02-28T09:37:11.106Z,4.7
2023-02-28T09:39:59.367Z,5.2
2023-02-28T09:42:46.706Z,6.1
2023-02-28T09:45:36.948Z,6.1
2023-02-28T09:48:27.479Z,5.9
2023-02-28T09:51:21.640Z,5.9
2023-02-28T09:54:20.894Z,5.8
2023-02-28T09:57:10.248Z,5.9
2023-02-28T10:00:05.644Z,5.9
2023-02-28T10:03:03.806Z,6
2023-02-28T10:06:08.862Z,6.1
2023-02-28T10:09:02.023Z,6.2
2023-02-28T10:11:56.100Z,6.4
2023-02-28T10:14:50.684Z,6.4
2023-02-28T10:17:54.878Z,6.5
2023-02-28T10:20:46.876Z,6.3
2023-02-28T10:23:36.314Z,6.1
2023-02-28T10:26:23.970Z,5.9
2023-02-28T10:29:14.907Z,5.9
2023-02-28T10:32:02.393Z,6.1
2023-02-28T10:34:50.397Z,6.4
2023-02-28T10:37:41.721Z,6.6
2023-02-28T10:40:31.622Z,6.7
2023-02-28T10:43:21.295Z,6.9
2023-02-28T10:46:10.699Z,6.9
2023-02-28T10:49:11.243Z,7
2023-02-28T10:52:03.702Z,7.1
2023-02-28T10:54:55.783Z,7.2
2023-02-28T10:58:01.872Z,7.4
2023-02-28T11:01:00.578Z,7.4
2023-02-28T11:03:48.146Z,7.6
2023-02-28T11:06:39.785Z,7.7
2023-02-28T11:09:27.106Z,7.8
2023-02-28T11:12:19.181Z,7.9
2023-02-28T11:15:09.840Z,7.9
2023-02-28T11:18:10.180Z,8
2023-02-28T11:21:09.810Z,8.1
2023-02-28T11:24:06.018Z,8.2
2023-02-28T11:27:08.816Z,8.2
2023-02-28T11:30:12.216Z,8.2
2023-02-28T11:33:19.746Z,8.4
2023-02-28T11:36:13.353Z,8.6
2023-02-28T11:39:05.017Z,8.7
2023-02-28T11:41:58.489Z,8.8
2023-02-28T11:44:57.885Z,8.8
2023-02-28T11:47:58.336Z,8.9
2023-02-28T11:50:54.986Z,8.9
2023-02-28T11:53:55.038Z,8.9
2023-02-28T11:56:57.784Z,9.2
2023-02-28T12:00:08.009Z,9.4
2023-02-28T12:03:13.987Z,9.5
2023-02-28T12:06:14.280Z,9.7
2023-02-28T12:09:09.658Z,9.8
2023-02-28T12:12:15.356Z,9.9
2023-02-28T12:15:16.080Z,10
2023-02-28T12:18:14.567Z,10
2023-02-28T12:21:19.332Z,10.1
2023-02-28T12:24:17.797Z,10.2
2023-02-28T12:27:25.963Z,10.4
2023-02-28T12:30:19.042Z,10.5
2023-02-28T12:33:11.929Z,10.6
2023-02-28T12:36:04.525Z,10.6
2023-02-28T12:38:57.865Z,10.7
2023-02-28T12:41:50.514Z,10.7
2023-02-28T12:44:42.287Z,10.8
2023-02-28T12:47:35.059Z,10.8
2023-02-28T12:50:26.622Z,10.9
2023-02-28T12:53:17.302Z,11
2023-02-28T12:56:14.396Z,11
2023-02-28T12:59:08.443Z,11
2023-02-28T13:02:08.471Z,11.1
2023-02-28T13:05:16.619Z,11.3
2023-02-28T13:08:46.313Z,11.4
2023-02-28T13:11:48.533Z,11.5
2023-02-28T13:14:37.858Z,11.5
2023-02-28T13:17:25.641Z,11.6
2023-02-28T13:20:13.107Z,11.5
2023-02-28T13:23:04.805Z,11.6
2023-02-28T13:26:25.899Z,11.7
2023-02-28T13:30:31.799Z,11.9
2023-02-28T13:33:51.754Z,12.1
2023-02-28T13:37:11.891Z,12.2
2023-02-28T13:40:35.413Z,12.2
2023-02-28T13:43:35.734Z,12.2
2023-02-28T13:46:47.081Z,12.3
2023-02-28T13:50:07.982Z,12.3
2023-02-28T13:53:13.093Z,12.3
2023-02-28T13:56:34.679Z,12.3
2023-02-28T13:59:31.305Z,12.2
2023-02-28T14:02:28.771Z,12
2023-02-28T14:05:34.312Z,12
2023-02-28T14:08:23.412Z,11.9
2023-02-28T14:11:11.282Z,11.8
2023-02-28T14:14:13.438Z,11.7
2023-02-28T14:17:41.703Z,11.6
2023-02-28T14:20:30.377Z,11.6
2023-02-28T14:23:19.600Z,11.5
2023-02-28T14:26:26.604Z,11.5
2023-02-28T14:29:29.565Z,11.4
2023-02-28T14:32:38.736Z,11.3
2023-02-28T14:35:33.794Z,11.2
2023-02-28T14:38:36.935Z,11.1
2023-02-28T14:41:31.191Z,11
2023-02-28T14:44:22.371Z,10.8
2023-02-28T14:47:11.401Z,10.7
2023-02-28T14:50:01.916Z,10.6
2023-02-28T14:52:52.076Z,10.5
2023-02-28T14:55:41.884Z,10.4
2023-02-28T14:58:32.302Z,10.3
2023-02-28T15:01:20.378Z,10.2
2023-02-28T15:04:10.066Z,10
2023-02-28T15:07:09.313Z,10
2023-02-28T15:10:03.198Z,9.8
2023-02-28T15:13:00.231Z,9.5
2023-02-28T15:16:01.598Z,9.4
2023-02-28T15:18:54.390Z,9.2
2023-02-28T15:21:45.224Z,8.9
2023-02-28T15:24:35.652Z,8.7
2023-02-28T15:27:26.770Z,8.5
2023-02-28T15:30:17.819Z,8.3
2023-02-28T15:33:10.786Z,8.1
2023-02-28T15:36:07.076Z,8
2023-02-28T15:39:14.281Z,7.8
2023-02-28T15:42:07.148Z,7.7
2023-02-28T15:45:03.753Z,7.6
2023-02-28T15:47:53.618Z,7.5
2023-02-28T15:50:41.877Z,7.4
2023-02-28T15:53:29.841Z,7.2
2023-02-28T15:56:22.901Z,7.1
2023-02-28T15:59:12.709Z,7
2023-02-28T16:02:04.341Z,6.9
2023-02-28T16:05:03.398Z,6.8
2023-02-28T16:08:13.325Z,6.7
2023-02-28T16:11:02.150Z,6.6
2023-02-28T16:13:49.553Z,6.4
2023-02-28T16:16:38.537Z,6.3
2023-02-28T16:19:30.244Z,6.1
2023-02-28T16:22:18.280Z,5.9
2023-02-28T16:25:05.689Z,5.8
2023-02-28T16:27:54.422Z,5.7
2023-02-28T16:30:45.837Z,5.5
2023-02-28T16:33:34.833Z,5.3
2023-02-28T16:36:22.295Z,5.2
2023-02-28T16:39:11.119Z,5
2023-02-28T16:41:59.496Z,4.9
2023-02-28T16:44:46.891Z,4.8
2023-02-28T16:47:34.539Z,4.6
2023-02-28T16:50:21.984Z,4.5
2023-02-28T16:53:11.587Z,4.3
2023-02-28T16:55:59.954Z,4.2
2023-02-28T16:58:47.843Z,4.1
2023-02-28T17:01:37.247Z,3.9
2023-02-28T17:04:24.898Z,3.8
2023-02-28T17:07:13.049Z,3.7
2023-02-28T17:10:02.584Z,3.6
2023-02-28T17:13:13.000Z,3.5
2023-02-28T17:16:02.222Z,3.3
2023-02-28T17:18:51.240Z,3.2
2023-02-28T17:21:41.186Z,3.1
2023-02-28T17:24:31.298Z,3.1
2023-02-28T17:27:19.100Z,3
2023-02-28T17:30:06.724Z,2.9
2023-02-28T17:33:02.813Z,2.8
2023-02-28T17:35:50.766Z,2.8
2023-02-28T17:38:38.144Z,2.7
2023-02-28T17:41:25.613Z,2.6
2023-02-28T17:44:15.290Z,2.5
2023-02-28T17:47:03.235Z,2.5
2023-02-28T17:49:51.068Z,3.4
2023-02-28T17:52:38.627Z,5
2023-02-28T17:55:26.002Z,4.9
2023-02-28T17:58:13.757Z,4.4
2023-02-28T18:01:01.277Z,4
2023-02-28T18:03:48.802Z,3.5
2023-02-28T18:06:36.260Z,3.2
2023-02-28T18:09:35.365Z,2.9
2023-02-28T18:12:22.789Z,2.7
2023-02-28T18:15:10.647Z,2.6
2023-02-28T18:17:59.893Z,2.4
2023-02-28T18:20:48.575Z,2.3
2023-02-28T18:23:37.748Z,2.1
2023-02-28T18:26:32.612Z,2.1
2023-02-28T18:29:20.877Z,2.9
2023-02-28T18:32:11.233Z,4.8
2023-02-28T18:34:59.668Z,5.3
2023-02-28T18:37:47.141Z,4.7
2023-02-28T18:40:34.373Z,4
2023-02-28T18:43:22.969Z,3.5
2023-02-28T18:46:10.818Z,3
2023-02-28T18:49:01.443Z,2.7
2023-02-28T18:51:48.743Z,2.5
2023-02-28T18:54:36.248Z,2.2
2023-02-28T18:57:23.611Z,2.5
2023-02-28T19:00:11.431Z,4.5
2023-02-28T19:03:04.194Z,4.9
2023-02-28T19:05:52.202Z,4.4
2023-02-28T19:08:41.141Z,3.8
2023-02-28T19:11:28.658Z,3.3
2023-02-28T19:14:16.533Z,2.8
2023-02-28T19:17:05.710Z,2.4
2023-02-28T19:19:53.107Z,2.1
2023-02-28T19:22:40.459Z,1.9
2023-02-28T19:25:29.109Z,1.7
2023-02-28T19:28:16.804Z,1.6
2023-02-28T19:31:04.181Z,1.4
2023-02-28T19:33:59.080Z,1.3
2023-02-28T19:36:46.986Z,1.2
2023-02-28T19:39:35.421Z,1.1
2023-02-28T19:42:26.044Z,1.6
2023-02-28T19:45:17.667Z,3.7
2023-02-28T19:48:05.362Z,4.2
2023-02-28T19:50:54.486Z,3.7
2023-02-28T19:53:43.236Z,3.1
2023-02-28T19:56:31.171Z,2.6
2023-02-28T19:59:21.739Z,2.1
2023-02-28T20:02:18.404Z,1.7
2023-02-28T20:05:07.582Z,1.4
2023-02-28T20:07:56.200Z,1.2
2023-02-28T20:10:44.138Z,1
2023-02-28T20:13:31.536Z,1.7
2023-02-28T20:16:19.224Z,3.7
2023-02-28T20:19:06.902Z,4.4
2023-02-28T20:21:54.295Z,3.7
2023-02-28T20:24:41.790Z,3
2023-02-28T20:27:29.207Z,2.5
2023-02-28T20:30:18.385Z,2
2023-02-28T20:33:07.278Z,1.6
2023-02-28T20:35:54.944Z,1.3
2023-02-28T20:38:44.555Z,1.1
2023-02-28T20:41:32.577Z,1.8
2023-02-28T20:44:19.901Z,3.7
2023-02-28T20:47:07.264Z,3.7
2023-02-28T20:49:54.752Z,3
2023-02-28T20:52:42.103Z,2.5
2023-02-28T20:55:29.602Z,1.9
2023-02-28T20:58:17.070Z,1.5
2023-02-28T21:01:04.473Z,1.2
2023-02-28T21:03:57.223Z,0.9
2023-02-28T21:06:46.476Z,1.7
2023-02-28T21:09:36.399Z,3.6
2023-02-28T21:12:23.840Z,3.8
2023-02-28T21:15:11.201Z,3.1
2023-02-28T21:17:58.542Z,2.4
2023-02-28T21:20:46.024Z,1.9
2023-02-28T21:23:33.394Z,1.4
2023-02-28T21:26:20.773Z,1
2023-02-28T21:29:09.803Z,0.9
2023-02-28T21:31:59.811Z,2.4
2023-02-28T21:34:47.330Z,3.5
2023-02-28T21:37:34.827Z,3
2023-02-28T21:40:23.315Z,2.3
2023-02-28T21:43:11.801Z,1.7
2023-02-28T21:46:00.808Z,1.2
2023-02-28T21:48:50.095Z,0.8
2023-02-28T21:51:39.072Z,0.5
2023-02-28T21:54:32.320Z,1.5
2023-02-28T21:57:20.172Z,3.1
2023-02-28T22:00:07.658Z,2.8
2023-02-28T22:02:57.124Z,2.2
2023-02-28T22:05:45.172Z,1.5
2023-02-28T22:08:32.532Z,1
2023-02-28T22:11:20.075Z,0.7
2023-02-28T22:14:10.275Z,1.6
2023-02-28T22:17:01.003Z,3.6
2023-02-28T22:19:49.096Z,4.1
2023-02-28T22:22:36.493Z,3.3
2023-02-28T22:25:23.782Z,2.4
2023-02-28T22:28:11.617Z,1.7
2023-02-28T22:31:00.007Z,1.1
2023-02-28T22:33:58.760Z,1
2023-02-28T22:36:50.411Z,2.8
2023-02-28T22:39:39.144Z,4.3
2023-02-28T22:42:26.709Z,3.9
2023-02-28T22:45:17.026Z,3.1
2023-02-28T22:48:04.348Z,2.3
2023-02-28T22:50:58.656Z,1.6
2023-02-28T22:53:49.550Z,1
2023-02-28T22:56:38.632Z,1.6
2023-02-28T22:59:26.117Z,3.4
2023-02-28T23:02:13.785Z,3.5
2023-02-28T23:05:01.316Z,2.7
2023-02-28T23:07:48.823Z,1.8
2023-02-28T23:10:36.293Z,1.2
2023-02-28T23:13:27.292Z,0.7
2023-02-28T23:16:14.665Z,0.2
2023-02-28T23:19:02.079Z,-0.1
2023-02-28T23:21:53.004Z,-0.3
2023-02-28T23:24:41.626Z,0.7
2023-02-28T23:27:29.090Z,2.7
2023-02-28T23:30:16.510Z,4.3
2023-02-28T23:33:04.267Z,3.7
2023-02-28T23:35:52.507Z,2.8
2023-02-28T23:38:39.884Z,1.9
2023-02-28T23:41:31.066Z,1.1
2023-02-28T23:44:19.687Z,0.5
2023-02-28T23:47:07.679Z,0.1
2023-02-28T23:49:58.574Z,1
2023-02-28T23:52:45.982Z,3
2023-02-28T23:55:33.472Z,3.3
2023-02-28T23:58:20.748Z,2.4
